createdAt,value
2017-03-14T00:00:19.837Z,6.01
2017-03-14T00:01:33.239Z,6.01
2017-03-14T00:02:46.652Z,6.05
2017-03-14T00:04:00.209Z,6.05
2017-03-14T00:05:14.085Z,5.99
2017-03-14T00:06:28.783Z,5.94
2017-03-14T00:07:42.259Z,5.91
2017-03-14T00:08:56.174Z,5.98
2017-03-14T00:10:10.095Z,5.91
2017-03-14T00:11:24.152Z,5.97
2017-03-14T00:12:38.117Z,5.98
2017-03-14T00:13:51.694Z,5.91
2017-03-14T00:15:05.342Z,5.97
2017-03-14T00:16:19.666Z,5.88
2017-03-14T00:17:34.799Z,5.9
2017-03-14T00:18:49.289Z,5.88
2017-03-14T00:20:02.831Z,5.84
2017-03-14T00:21:16.314Z,5.79
2017-03-14T00:22:30.094Z,5.84
2017-03-14T00:23:43.676Z,5.73
2017-03-14T00:24:57.188Z,5.73
2017-03-14T00:26:10.730Z,5.8
2017-03-14T00:27:24.243Z,5.87
2017-03-14T00:28:38.438Z,5.73
2017-03-14T00:29:52.818Z,5.79
2017-03-14T00:31:06.279Z,5.81
2017-03-14T00:32:19.750Z,5.8
2017-03-14T00:33:34.090Z,5.64
2017-03-14T00:34:47.934Z,5.65
2017-03-14T00:36:01.902Z,5.52
2017-03-14T00:37:15.420Z,5.55
2017-03-14T00:38:28.941Z,5.54
2017-03-14T00:39:42.435Z,5.51
2017-03-14T00:40:56.399Z,5.61
2017-03-14T00:42:10.297Z,5.58
2017-03-14T00:43:24.130Z,5.55
2017-03-14T00:44:38.062Z,5.56
2017-03-14T00:45:51.611Z,5.65
2017-03-14T00:47:05.128Z,5.56
2017-03-14T00:48:19.047Z,5.55
2017-03-14T00:49:32.923Z,5.54
2017-03-14T00:50:46.556Z,5.55
2017-03-14T00:52:00.068Z,5.51
2017-03-14T00:53:14.240Z,5.46
2017-03-14T00:54:28.144Z,5.49
2017-03-14T00:55:47.256Z,5.47
2017-03-14T00:57:01.650Z,5.4
2017-03-14T00:58:15.490Z,5.44
2017-03-14T00:59:29.258Z,5.43
2017-03-14T01:00:42.659Z,5.43
2017-03-14T01:01:56.180Z,5.37
2017-03-14T01:03:09.702Z,5.41
2017-03-14T01:04:23.117Z,5.43
2017-03-14T01:05:37.287Z,5.4
2017-03-14T01:06:51.128Z,5.4
2017-03-14T01:08:04.630Z,5.47
2017-03-14T01:09:18.614Z,5.46
2017-03-14T01:10:32.087Z,5.54
2017-03-14T01:11:45.574Z,5.54
2017-03-14T01:12:59.601Z,5.58
2017-03-14T01:14:13.016Z,5.64
2017-03-14T01:15:27.257Z,5.69
2017-03-14T01:16:40.765Z,5.67
2017-03-14T01:17:54.287Z,5.76
2017-03-14T01:19:08.126Z,5.74
2017-03-14T01:20:21.987Z,5.8
2017-03-14T01:21:35.851Z,5.65
2017-03-14T01:22:49.372Z,5.55
2017-03-14T01:24:03.201Z,5.67
2017-03-14T01:25:16.678Z,5.62
2017-03-14T01:26:30.120Z,5.52
2017-03-14T01:27:44.000Z,5.38
2017-03-14T01:28:57.466Z,5.49
2017-03-14T01:30:10.877Z,5.52
2017-03-14T01:31:24.734Z,5.58
2017-03-14T01:32:38.982Z,5.58
2017-03-14T01:33:52.530Z,5.56
2017-03-14T01:35:05.947Z,5.67
2017-03-14T01:36:19.797Z,5.58
2017-03-14T01:37:33.657Z,5.69
2017-03-14T01:38:47.216Z,5.74
2017-03-14T01:40:00.615Z,5.83
2017-03-14T01:41:14.040Z,5.83
2017-03-14T01:42:27.950Z,5.83
2017-03-14T01:43:41.814Z,5.83
2017-03-14T01:44:56.696Z,5.59
2017-03-14T01:46:10.089Z,5.64
2017-03-14T01:47:23.548Z,5.59
2017-03-14T01:48:37.424Z,5.54
2017-03-14T01:49:51.411Z,5.52
2017-03-14T01:51:04.887Z,5.43
2017-03-14T01:52:18.327Z,5.41
2017-03-14T01:53:32.225Z,5.41
2017-03-14T01:54:45.993Z,5.46
2017-03-14T01:56:00.130Z,5.62
2017-03-14T01:57:14.035Z,5.72
2017-03-14T01:58:27.470Z,5.83
2017-03-14T01:59:40.911Z,5.74
2017-03-14T02:00:54.963Z,5.73
2017-03-14T02:02:08.808Z,5.65
2017-03-14T02:03:22.262Z,5.69
2017-03-14T02:04:39.758Z,5.52
2017-03-14T02:05:59.064Z,5.56
2017-03-14T02:07:20.588Z,5.51
2017-03-14T02:08:41.561Z,5.4
2017-03-14T02:10:02.096Z,5.37
2017-03-14T02:11:23.286Z,5.23
2017-03-14T02:12:46.827Z,5.29
2017-03-14T02:14:03.731Z,5.26
2017-03-14T02:15:21.880Z,5.25
2017-03-14T02:16:35.325Z,5.22
2017-03-14T02:18:01.807Z,5.26
2017-03-14T02:19:16.077Z,5.29
2017-03-14T02:20:29.539Z,5.19
2017-03-14T02:21:43.375Z,5.13
2017-03-14T02:22:56.900Z,5.12
2017-03-14T02:24:10.351Z,5.02
2017-03-14T02:25:23.839Z,4.98
2017-03-14T02:26:37.678Z,5.04
2017-03-14T02:27:51.122Z,4.94
2017-03-14T02:29:04.509Z,4.92
2017-03-14T02:30:18.314Z,4.95
2017-03-14T02:31:31.829Z,5.02
2017-03-14T02:32:45.216Z,5.02
2017-03-14T02:33:58.658Z,5
2017-03-14T02:35:12.509Z,4.95
2017-03-14T02:36:26.053Z,4.95
2017-03-14T02:37:39.482Z,4.92
2017-03-14T02:38:52.972Z,4.92
2017-03-14T02:40:06.406Z,4.97
2017-03-14T02:41:19.886Z,5.02
2017-03-14T02:42:33.468Z,5.08
2017-03-14T02:43:47.329Z,5.22
2017-03-14T02:45:01.161Z,5.23
2017-03-14T02:46:14.565Z,5.19
2017-03-14T02:47:28.451Z,5.23
2017-03-14T02:48:42.374Z,5.19
2017-03-14T02:49:55.820Z,5.19
2017-03-14T02:51:09.216Z,5.26
2017-03-14T02:52:22.746Z,5.19
2017-03-14T02:53:36.191Z,5.19
2017-03-14T02:54:49.614Z,5.18
2017-03-14T02:56:03.145Z,5.16
2017-03-14T02:57:17.041Z,5.19
2017-03-14T02:58:30.826Z,5.18
2017-03-14T02:59:45.085Z,5.2
2017-03-14T03:00:58.525Z,5.36
2017-03-14T03:02:12.042Z,5.37
2017-03-14T03:03:25.495Z,5.33
2017-03-14T03:04:38.927Z,5.29
2017-03-14T03:05:52.462Z,5.31
2017-03-14T03:07:05.926Z,5.28
2017-03-14T03:08:19.409Z,5.28
2017-03-14T03:09:34.174Z,5.33
2017-03-14T03:10:48.457Z,5.52
2017-03-14T03:12:01.875Z,5.52
2017-03-14T03:13:15.335Z,5.67
2017-03-14T03:14:28.874Z,5.65
2017-03-14T03:15:42.338Z,5.81
2017-03-14T03:16:55.740Z,5.84
2017-03-14T03:18:09.564Z,5.92
2017-03-14T03:19:23.161Z,5.98
2017-03-14T03:20:36.625Z,6.07
2017-03-14T03:21:51.075Z,6.05
2017-03-14T03:23:04.498Z,6.07
2017-03-14T03:24:18.670Z,6.02
2017-03-14T03:25:32.449Z,6.1
2017-03-14T03:26:46.748Z,6.16
2017-03-14T03:28:00.249Z,5.98
2017-03-14T03:29:16.574Z,6.05
2017-03-14T03:30:30.121Z,6.01
2017-03-14T03:31:43.972Z,6.01
2017-03-14T03:32:57.844Z,5.87
2017-03-14T03:34:11.293Z,5.81
2017-03-14T03:35:24.736Z,5.73
2017-03-14T03:36:38.205Z,5.74
2017-03-14T03:37:51.631Z,5.88
2017-03-14T03:39:05.082Z,5.8
2017-03-14T03:40:18.953Z,5.9
2017-03-14T03:41:32.461Z,5.83
2017-03-14T03:42:46.090Z,5.8
2017-03-14T03:43:59.525Z,5.91
2017-03-14T03:45:13.520Z,5.87
2017-03-14T03:46:27.432Z,5.73
2017-03-14T03:47:41.222Z,5.73
2017-03-14T03:48:55.124Z,5.69
2017-03-14T03:50:08.535Z,5.58
2017-03-14T03:51:22.075Z,5.67
2017-03-14T03:52:35.505Z,5.65
2017-03-14T03:53:48.887Z,5.76
2017-03-14T03:55:03.072Z,5.88
2017-03-14T03:56:16.539Z,5.97
2017-03-14T03:57:30.420Z,5.98
2017-03-14T03:58:43.895Z,6.05
2017-03-14T03:59:57.341Z,6.06
2017-03-14T04:01:11.108Z,6.15
2017-03-14T04:02:24.705Z,6.17
2017-03-14T04:03:38.677Z,6.09
2017-03-14T04:04:52.139Z,6.16
2017-03-14T04:06:05.554Z,6.1
2017-03-14T04:07:19.393Z,6.01
2017-03-14T04:08:32.844Z,6.01
2017-03-14T04:09:46.307Z,6.01
2017-03-14T04:10:59.745Z,6.05
2017-03-14T04:12:13.672Z,6.05
2017-03-14T04:13:27.103Z,5.98
2017-03-14T04:14:40.592Z,5.95
2017-03-14T04:15:54.135Z,5.94
2017-03-14T04:17:07.883Z,5.87
2017-03-14T04:18:21.366Z,5.88
2017-03-14T04:19:35.686Z,5.9
2017-03-14T04:20:49.129Z,5.84
2017-03-14T04:22:02.646Z,5.81
2017-03-14T04:23:16.177Z,5.73
2017-03-14T04:24:29.646Z,5.79
2017-03-14T04:25:43.402Z,5.84
2017-03-14T04:26:56.894Z,5.88
2017-03-14T04:28:10.373Z,5.94
2017-03-14T04:29:23.970Z,5.83
2017-03-14T04:30:37.388Z,5.77
2017-03-14T04:31:51.247Z,5.84
2017-03-14T04:33:04.720Z,5.84
2017-03-14T04:34:18.170Z,5.88
2017-03-14T04:35:32.088Z,5.87
2017-03-14T04:36:45.557Z,5.94
2017-03-14T04:37:58.996Z,5.83
2017-03-14T04:39:44.718Z,6.01
2017-03-14T04:40:58.274Z,6.06
2017-03-14T04:42:12.199Z,6.05
2017-03-14T04:43:25.710Z,6.1
2017-03-14T04:44:39.158Z,6.15
2017-03-14T04:45:54.846Z,6.16
2017-03-14T04:47:08.271Z,6.16
2017-03-14T04:48:21.804Z,6.22
2017-03-14T04:49:35.748Z,6.19
2017-03-14T04:50:49.235Z,6.15
2017-03-14T04:52:02.683Z,6.34
2017-03-14T04:53:16.201Z,6.25
2017-03-14T04:54:29.775Z,6.32
2017-03-14T04:55:43.206Z,6.25
2017-03-14T04:56:56.646Z,6.17
2017-03-14T04:58:10.066Z,6.2
2017-03-14T04:59:23.706Z,6.16
2017-03-14T05:00:37.218Z,6.26
2017-03-14T05:01:51.092Z,6.26
2017-03-14T05:03:04.525Z,6.2
2017-03-14T05:04:18.884Z,6.22
2017-03-14T05:05:32.376Z,6.15
2017-03-14T05:06:45.868Z,6.2
2017-03-14T05:07:59.929Z,6.17
2017-03-14T05:09:13.415Z,6.2
2017-03-14T05:10:26.996Z,6.2
2017-03-14T05:11:40.424Z,6.07
2017-03-14T05:12:54.025Z,6.09
2017-03-14T05:14:07.674Z,6.07
2017-03-14T05:15:36.057Z,6.12
2017-03-14T05:16:49.763Z,5.94
2017-03-14T05:18:03.232Z,5.84
2017-03-14T05:19:16.675Z,5.8
2017-03-14T05:20:30.477Z,5.8
2017-03-14T05:21:45.253Z,5.83
2017-03-14T05:23:02.805Z,5.76
2017-03-14T05:24:16.616Z,5.77
2017-03-14T05:25:30.225Z,5.83
2017-03-14T05:26:44.576Z,5.81
2017-03-14T05:27:58.500Z,5.81
2017-03-14T05:29:12.399Z,5.95
2017-03-14T05:30:26.241Z,5.84
2017-03-14T05:31:39.794Z,6.07
2017-03-14T05:32:53.217Z,6.15
2017-03-14T05:34:06.866Z,6.29
2017-03-14T05:35:20.298Z,6.29
2017-03-14T05:36:33.857Z,6.2
2017-03-14T05:37:47.695Z,6.25
2017-03-14T05:39:01.533Z,6.31
2017-03-14T05:40:15.003Z,6.35
2017-03-14T05:41:28.420Z,6.34
2017-03-14T05:42:42.534Z,6.26
2017-03-14T05:43:56.451Z,6.17
2017-03-14T05:45:09.905Z,6.26
2017-03-14T05:46:23.768Z,6.22
2017-03-14T05:47:37.307Z,6.2
2017-03-14T05:48:51.245Z,6.15
2017-03-14T05:50:04.750Z,6.31
2017-03-14T05:51:18.185Z,6.28
2017-03-14T05:52:32.150Z,6.06
2017-03-14T05:53:45.618Z,6.2
2017-03-14T05:54:59.115Z,6.15
2017-03-14T05:56:12.731Z,6.05
2017-03-14T05:57:26.601Z,6.05
2017-03-14T05:58:40.104Z,6.05
2017-03-14T05:59:53.990Z,6.02
2017-03-14T06:01:07.459Z,6.07
2017-03-14T06:02:23.177Z,6.13
2017-03-14T06:03:37.324Z,6.22
2017-03-14T06:04:50.815Z,6.19
2017-03-14T06:06:04.287Z,6.07
2017-03-14T06:07:18.129Z,6.1
2017-03-14T06:08:32.111Z,6.07
2017-03-14T06:09:45.681Z,5.99
2017-03-14T06:11:00.215Z,6.06
2017-03-14T06:12:13.724Z,6.16
2017-03-14T06:13:27.605Z,6.07
2017-03-14T06:14:41.994Z,6.2
2017-03-14T06:15:55.475Z,6.2
2017-03-14T06:17:08.923Z,6.22
2017-03-14T06:18:22.874Z,6.22
2017-03-14T06:19:37.217Z,6.29
2017-03-14T06:20:50.713Z,6.15
2017-03-14T06:22:04.235Z,6.17
2017-03-14T06:23:17.721Z,6.19
2017-03-14T06:24:31.219Z,6.19
2017-03-14T06:25:44.730Z,6.31
2017-03-14T06:26:58.626Z,6.34
2017-03-14T06:28:13.512Z,6.26
2017-03-14T06:29:27.026Z,6.32
2017-03-14T06:30:40.641Z,6.26
2017-03-14T06:31:54.169Z,6.29
2017-03-14T06:33:07.939Z,6.28
2017-03-14T06:34:22.224Z,6.35
2017-03-14T06:35:36.901Z,6.34
2017-03-14T06:36:50.806Z,6.35
2017-03-14T06:38:04.417Z,6.38
2017-03-14T06:39:17.955Z,6.38
2017-03-14T06:40:32.339Z,6.41
2017-03-14T06:41:45.846Z,6.46
2017-03-14T06:42:59.389Z,6.6
2017-03-14T06:44:12.918Z,6.59
2017-03-14T06:45:26.900Z,6.67
2017-03-14T06:46:41.294Z,6.68
2017-03-14T06:47:55.224Z,6.75
2017-03-14T06:49:08.875Z,6.83
2017-03-14T06:50:22.850Z,6.78
2017-03-14T06:51:36.999Z,6.78
2017-03-14T06:52:50.866Z,6.85
2017-03-14T06:54:04.682Z,6.93
2017-03-14T06:55:18.154Z,6.92
2017-03-14T06:56:31.817Z,6.83
2017-03-14T06:57:46.086Z,6.9
2017-03-14T06:58:59.995Z,6.93
2017-03-14T07:00:13.990Z,7
2017-03-14T07:01:27.437Z,7
2017-03-14T07:02:41.303Z,7.05
2017-03-14T07:03:55.317Z,7.1
2017-03-14T07:05:08.954Z,7.23
2017-03-14T07:06:22.500Z,7.26
2017-03-14T07:07:36.528Z,7.26
2017-03-14T07:08:51.199Z,7.25
2017-03-14T07:10:04.732Z,7.31
2017-03-14T07:11:18.295Z,7.32
2017-03-14T07:12:32.677Z,7.36
2017-03-14T07:13:46.209Z,7.37
2017-03-14T07:14:59.706Z,7.46
2017-03-14T07:16:13.262Z,7.51
2017-03-14T07:17:26.985Z,7.46
2017-03-14T07:18:42.811Z,7.5
2017-03-14T07:19:56.757Z,7.44
2017-03-14T07:21:10.235Z,7.4
2017-03-14T07:22:24.055Z,7.61
2017-03-14T07:23:37.618Z,7.61
2017-03-14T07:24:51.597Z,7.61
2017-03-14T07:26:05.118Z,7.67
2017-03-14T07:27:18.676Z,7.69
2017-03-14T07:28:33.009Z,7.83
2017-03-14T07:29:46.514Z,7.81
2017-03-14T07:31:00.060Z,7.98
2017-03-14T07:32:14.070Z,8.03
2017-03-14T07:33:28.225Z,8.03
2017-03-14T07:34:42.141Z,8.24
2017-03-14T07:35:56.140Z,8.21
2017-03-14T07:37:09.569Z,8.31
2017-03-14T07:38:23.107Z,8.31
2017-03-14T07:39:37.353Z,8.42
2017-03-14T07:40:51.128Z,8.41
2017-03-14T07:42:05.115Z,8.42
2017-03-14T07:44:23.012Z,8.59
2017-03-14T07:45:36.565Z,8.59
2017-03-14T07:46:50.371Z,8.59
2017-03-14T07:48:04.280Z,8.54
2017-03-14T07:49:17.796Z,8.59
2017-03-14T07:50:31.377Z,8.6
2017-03-14T07:51:44.863Z,8.66
2017-03-14T07:53:01.741Z,8.68
2017-03-14T07:54:15.637Z,8.64
2017-03-14T07:55:29.632Z,8.75
2017-03-14T07:56:43.158Z,8.74
2017-03-14T07:57:57.097Z,8.81
2017-03-14T07:59:12.269Z,8.74
2017-03-14T08:00:25.817Z,8.77
2017-03-14T08:01:39.293Z,8.9
2017-03-14T08:02:52.791Z,8.97
2017-03-14T08:04:06.277Z,9.02
2017-03-14T08:05:19.801Z,9.11
2017-03-14T08:06:33.412Z,9.05
2017-03-14T08:07:47.074Z,9.09
2017-03-14T08:09:00.525Z,9.13
2017-03-14T08:10:13.992Z,9.24
2017-03-14T08:11:27.625Z,9.39
2017-03-14T08:12:41.054Z,9.47
2017-03-14T08:13:54.724Z,9.47
2017-03-14T08:15:08.327Z,9.55
2017-03-14T08:16:21.917Z,9.69
2017-03-14T08:17:35.419Z,9.7
2017-03-14T08:18:49.840Z,9.77
2017-03-14T08:20:03.678Z,9.85
2017-03-14T08:21:17.085Z,9.94
2017-03-14T08:22:30.617Z,10.09
2017-03-14T08:23:44.814Z,10.06
2017-03-14T08:24:58.847Z,10.03
2017-03-14T08:26:12.343Z,10.13
2017-03-14T08:27:25.869Z,10.09
2017-03-14T08:28:39.422Z,10.25
2017-03-14T08:29:53.421Z,10.21
2017-03-14T08:31:07.451Z,10.41
2017-03-14T08:32:21.483Z,10.48
2017-03-14T08:33:35.072Z,10.55
2017-03-14T08:34:49.027Z,10.57
2017-03-14T08:36:05.053Z,10.71
2017-03-14T08:37:18.630Z,10.77
2017-03-14T08:38:32.767Z,10.84
2017-03-14T08:39:46.757Z,10.86
2017-03-14T08:41:00.373Z,10.87
2017-03-14T08:42:14.150Z,10.98
2017-03-14T08:43:28.800Z,11.13
2017-03-14T08:44:42.607Z,11.3
2017-03-14T08:45:56.176Z,11.33
2017-03-14T08:47:09.764Z,11.38
2017-03-14T08:48:23.800Z,11.43
2017-03-14T08:49:37.294Z,11.62
2017-03-14T08:50:51.278Z,11.55
2017-03-14T08:52:04.849Z,11.58
2017-03-14T08:53:18.486Z,11.71
2017-03-14T08:54:32.671Z,11.83
2017-03-14T08:55:47.025Z,11.77
2017-03-14T08:57:00.541Z,11.74
2017-03-14T08:58:14.430Z,11.91
2017-03-14T08:59:27.934Z,12.03
2017-03-14T09:00:41.734Z,12.08
2017-03-14T09:01:55.726Z,12.05
2017-03-14T09:03:09.379Z,12.18
2017-03-14T09:04:23.455Z,12.18
2017-03-14T09:05:37.951Z,12.33
2017-03-14T09:06:51.861Z,12.4
2017-03-14T09:08:05.846Z,12.53
2017-03-14T09:09:19.648Z,12.68
2017-03-14T09:10:33.198Z,12.68
2017-03-14T09:11:46.645Z,12.76
2017-03-14T09:13:00.100Z,12.84
2017-03-14T09:14:14.118Z,12.91
2017-03-14T09:15:27.686Z,13.03
2017-03-14T09:16:41.326Z,12.98
2017-03-14T09:17:55.289Z,12.91
2017-03-14T09:19:09.209Z,13.11
2017-03-14T09:20:23.198Z,12.99
2017-03-14T09:21:37.084Z,13.01
2017-03-14T09:22:50.983Z,12.93
2017-03-14T09:24:04.543Z,13.11
2017-03-14T09:26:35.257Z,13.16
2017-03-14T09:27:49.364Z,13.11
2017-03-14T09:29:02.859Z,13.19
2017-03-14T09:30:17.126Z,13.31
2017-03-14T09:31:31.065Z,13.46
2017-03-14T09:32:44.622Z,13.49
2017-03-14T09:33:58.123Z,13.58
2017-03-14T09:35:18.178Z,13.54
2017-03-14T09:36:32.074Z,13.6
2017-03-14T09:37:45.799Z,13.68
2017-03-14T09:38:59.275Z,13.75
2017-03-14T09:40:13.672Z,13.71
2017-03-14T09:41:27.186Z,13.7
2017-03-14T09:42:41.791Z,13.58
2017-03-14T09:43:55.645Z,13.47
2017-03-14T09:45:09.357Z,13.3
2017-03-14T09:46:22.831Z,13.37
2017-03-14T09:47:36.425Z,13.33
2017-03-14T09:48:49.915Z,13.3
2017-03-14T09:50:04.076Z,13.24
2017-03-14T09:51:18.549Z,13.36
2017-03-14T09:52:32.108Z,13.21
2017-03-14T09:53:48.127Z,13.19
2017-03-14T09:55:01.623Z,13.23
2017-03-14T09:56:15.695Z,13.2
2017-03-14T09:57:29.553Z,13.21
2017-03-14T09:58:43.645Z,13.19
2017-03-14T09:59:57.148Z,13.3
2017-03-14T10:01:11.259Z,13.39
2017-03-14T10:02:25.465Z,13.43
2017-03-14T10:03:39.074Z,13.47
2017-03-14T10:04:52.681Z,13.42
2017-03-14T10:06:06.198Z,13.49
2017-03-14T10:07:20.294Z,13.6
2017-03-14T10:08:34.672Z,13.78
2017-03-14T10:09:48.757Z,13.68
2017-03-14T10:11:02.700Z,13.43
2017-03-14T10:12:16.325Z,13.37
2017-03-14T10:13:30.470Z,13.39
2017-03-14T10:14:44.246Z,13.6
2017-03-14T10:15:58.247Z,13.64
2017-03-14T10:17:11.907Z,13.58
2017-03-14T10:18:26.038Z,13.67
2017-03-14T10:19:40.078Z,13.76
2017-03-14T10:20:53.909Z,13.61
2017-03-14T10:22:07.843Z,13.58
2017-03-14T10:23:21.429Z,13.73
2017-03-14T10:24:35.298Z,13.62
2017-03-14T10:25:49.414Z,13.55
2017-03-14T10:27:03.683Z,13.46
2017-03-14T10:28:17.623Z,13.54
2017-03-14T10:29:31.191Z,13.71
2017-03-14T10:30:45.624Z,13.75
2017-03-14T10:31:59.289Z,13.76
2017-03-14T10:33:13.422Z,13.75
2017-03-14T10:34:26.882Z,13.7
2017-03-14T10:35:41.032Z,13.75
2017-03-14T10:36:54.873Z,13.71
2017-03-14T10:38:09.083Z,13.68
2017-03-14T10:39:23.010Z,13.68
2017-03-14T10:40:36.662Z,13.78
2017-03-14T10:41:50.102Z,13.7
2017-03-14T10:43:03.621Z,13.64
2017-03-14T10:44:17.224Z,13.61
2017-03-14T10:45:30.985Z,13.71
2017-03-14T10:46:44.507Z,13.78
2017-03-14T10:47:58.066Z,13.91
2017-03-14T10:49:12.077Z,14
2017-03-14T10:50:25.780Z,14.03
2017-03-14T10:51:40.067Z,14.08
2017-03-14T10:52:53.584Z,14.08
2017-03-14T10:54:07.484Z,14.16
2017-03-14T10:55:21.561Z,14.18
2017-03-14T10:56:35.036Z,14.15
2017-03-14T10:57:48.867Z,14.12
2017-03-14T10:59:02.534Z,13.97
2017-03-14T11:00:16.395Z,13.98
2017-03-14T11:01:29.903Z,13.97
2017-03-14T11:02:43.410Z,14.08
2017-03-14T11:03:57.687Z,14.07
2017-03-14T11:05:11.267Z,13.94
2017-03-14T11:06:24.859Z,14.08
2017-03-14T11:07:39.023Z,14.11
2017-03-14T11:08:54.412Z,14.15
2017-03-14T11:10:10.472Z,14.2
2017-03-14T11:11:23.951Z,14.26
2017-03-14T11:12:38.191Z,14.22
2017-03-14T11:13:58.457Z,14.25
2017-03-14T11:15:17.989Z,14.26
2017-03-14T11:16:35.271Z,14.34
2017-03-14T11:17:49.107Z,14.37
2017-03-14T11:19:03.792Z,14.49
2017-03-14T11:20:22.366Z,14.41
2017-03-14T11:21:41.460Z,14.55
2017-03-14T11:23:01.181Z,14.53
2017-03-14T11:24:15.091Z,14.7
2017-03-14T11:25:30.861Z,14.7
2017-03-14T11:26:44.915Z,14.67
2017-03-14T11:27:59.905Z,14.68
2017-03-14T11:29:15.632Z,14.62
2017-03-14T11:30:30.024Z,14.77
2017-03-14T11:31:43.802Z,14.85
2017-03-14T11:32:57.394Z,14.82
2017-03-14T11:34:10.864Z,14.85
2017-03-14T11:35:25.065Z,14.82
2017-03-14T11:36:40.610Z,14.78
2017-03-14T11:37:58.112Z,14.96
2017-03-14T11:39:17.018Z,15.02
2017-03-14T11:40:32.498Z,14.96
2017-03-14T11:41:47.589Z,14.78
2017-03-14T11:43:01.086Z,14.87
2017-03-14T11:44:14.662Z,14.87
2017-03-14T11:45:28.587Z,14.82
2017-03-14T11:46:42.034Z,14.85
2017-03-14T11:47:55.624Z,14.89
2017-03-14T11:49:09.491Z,14.97
2017-03-14T11:50:23.140Z,14.92
2017-03-14T11:51:38.887Z,15
2017-03-14T11:52:52.474Z,15.11
2017-03-14T11:54:05.952Z,15.11
2017-03-14T11:55:19.792Z,15.05
2017-03-14T11:56:33.402Z,14.96
2017-03-14T11:57:46.861Z,14.94
2017-03-14T11:59:01.856Z,14.94
2017-03-14T12:00:15.836Z,15.02
2017-03-14T12:01:29.574Z,15.05
2017-03-14T12:02:43.357Z,15.05
2017-03-14T12:03:56.952Z,15.18
2017-03-14T12:05:10.475Z,15.23
2017-03-14T12:06:24.050Z,15.29
2017-03-14T12:07:38.067Z,15.27
2017-03-14T12:08:52.009Z,15.25
2017-03-14T12:10:05.962Z,15.27
2017-03-14T12:11:19.718Z,15.44
2017-03-14T12:12:33.264Z,15.37
2017-03-14T12:13:46.781Z,15.5
2017-03-14T12:15:00.570Z,15.52
2017-03-14T12:16:14.654Z,15.5
2017-03-14T12:17:28.563Z,15.45
2017-03-14T12:18:42.511Z,15.23
2017-03-14T12:19:56.384Z,15.12
2017-03-14T12:21:09.969Z,15.18
2017-03-14T12:22:23.601Z,15.12
2017-03-14T12:23:37.438Z,15.26
2017-03-14T12:24:51.306Z,15.32
2017-03-14T12:26:04.794Z,15.39
2017-03-14T12:27:20.778Z,15.48
2017-03-14T12:28:34.311Z,15.43
2017-03-14T12:29:47.806Z,15.39
2017-03-14T12:31:01.347Z,15.45
2017-03-14T12:32:14.951Z,15.52
2017-03-14T12:33:29.041Z,15.51
2017-03-14T12:34:42.502Z,15.52
2017-03-14T12:35:56.389Z,15.52
2017-03-14T12:37:10.702Z,15.6
2017-03-14T12:38:24.368Z,15.66
2017-03-14T12:39:38.429Z,15.76
2017-03-14T12:40:51.992Z,15.75
2017-03-14T12:42:06.422Z,15.81
2017-03-14T12:43:19.952Z,15.83
2017-03-14T12:45:16.135Z,15.8
2017-03-14T12:46:30.778Z,15.81
2017-03-14T12:47:44.579Z,15.81
2017-03-14T12:48:58.518Z,15.85
2017-03-14T12:50:12.416Z,15.94
2017-03-14T12:51:26.173Z,16
2017-03-14T12:52:40.051Z,15.99
2017-03-14T12:53:53.771Z,15.99
2017-03-14T12:55:07.596Z,16.05
2017-03-14T12:56:21.160Z,16.16
2017-03-14T12:57:34.991Z,16.09
2017-03-14T12:58:48.811Z,16.06
2017-03-14T13:00:02.717Z,16.03
2017-03-14T13:01:16.616Z,16.1
2017-03-14T13:02:30.581Z,16.18
2017-03-14T13:03:44.064Z,16.24
2017-03-14T13:05:12.897Z,16.16
2017-03-14T13:06:27.015Z,16.24
2017-03-14T13:07:40.980Z,16.18
2017-03-14T13:08:54.517Z,16.26
2017-03-14T13:10:08.508Z,16.31
2017-03-14T13:11:22.091Z,16.34
2017-03-14T13:12:35.909Z,16.29
2017-03-14T13:13:49.408Z,16.41
2017-03-14T13:15:02.995Z,16.41
2017-03-14T13:16:17.565Z,16.46
2017-03-14T13:17:31.123Z,16.26
2017-03-14T13:18:44.972Z,16.17
2017-03-14T13:19:58.808Z,16.05
2017-03-14T13:21:12.743Z,16.12
2017-03-14T13:22:26.248Z,16.21
2017-03-14T13:23:40.000Z,16.36
2017-03-14T13:24:53.828Z,16.34
2017-03-14T13:26:07.964Z,16.37
2017-03-14T13:27:21.761Z,16.29
2017-03-14T13:28:35.587Z,16.26
2017-03-14T13:29:49.270Z,16.28
2017-03-14T13:31:03.020Z,16.24
2017-03-14T13:32:17.224Z,16.26
2017-03-14T13:33:30.754Z,16.5
2017-03-14T13:34:44.333Z,16.37
2017-03-14T13:35:57.837Z,16.32
2017-03-14T13:37:26.501Z,16.4
2017-03-14T13:38:40.676Z,16.4
2017-03-14T13:39:54.172Z,16.46
2017-03-14T13:41:08.511Z,16.46
2017-03-14T13:42:22.400Z,16.44
2017-03-14T13:43:36.717Z,16.44
2017-03-14T13:44:52.900Z,16.47
2017-03-14T13:46:07.038Z,16.49
2017-03-14T13:47:21.152Z,16.32
2017-03-14T13:48:35.160Z,16.25
2017-03-14T13:49:49.448Z,16.29
2017-03-14T13:51:03.381Z,16.4
2017-03-14T13:52:17.689Z,16.47
2017-03-14T13:53:31.983Z,16.5
2017-03-14T13:54:45.581Z,16.46
2017-03-14T13:55:59.573Z,16.5
2017-03-14T13:57:13.998Z,16.51
2017-03-14T13:58:27.729Z,16.51
2017-03-14T13:59:41.466Z,16.46
2017-03-14T14:00:56.157Z,16.59
2017-03-14T14:02:09.977Z,16.51
2017-03-14T14:03:23.537Z,16.65
2017-03-14T14:04:37.494Z,16.69
2017-03-14T14:05:51.600Z,16.76
2017-03-14T14:07:06.172Z,16.68
2017-03-14T14:08:27.364Z,16.64
2017-03-14T14:09:41.114Z,16.77
2017-03-14T14:10:54.649Z,16.87
2017-03-14T14:12:08.247Z,16.84
2017-03-14T14:13:22.035Z,16.76
2017-03-14T14:14:36.604Z,16.89
2017-03-14T14:15:50.172Z,16.86
2017-03-14T14:17:03.743Z,16.87
2017-03-14T14:18:17.214Z,16.84
2017-03-14T14:19:30.716Z,16.92
2017-03-14T14:20:44.459Z,16.91
2017-03-14T14:21:58.364Z,16.92
2017-03-14T14:23:12.269Z,16.89
2017-03-14T14:24:25.887Z,16.83
2017-03-14T14:25:39.478Z,16.84
2017-03-14T14:26:52.963Z,16.76
2017-03-14T14:28:07.087Z,16.62
2017-03-14T14:29:20.964Z,16.54
2017-03-14T14:30:34.501Z,16.62
2017-03-14T14:31:48.027Z,16.76
2017-03-14T14:33:01.473Z,16.74
2017-03-14T14:34:14.979Z,16.92
2017-03-14T14:35:28.520Z,16.77
2017-03-14T14:36:42.284Z,16.89
2017-03-14T14:37:56.216Z,16.92
2017-03-14T14:39:10.108Z,16.83
2017-03-14T14:40:24.008Z,16.83
2017-03-14T14:41:38.087Z,16.86
2017-03-14T14:42:51.530Z,16.8
2017-03-14T14:44:05.290Z,16.87
2017-03-14T14:45:21.930Z,16.94
2017-03-14T14:46:39.355Z,16.84
2017-03-14T14:47:53.300Z,16.94
2017-03-14T14:49:06.718Z,16.98
2017-03-14T14:50:20.181Z,17.01
2017-03-14T14:51:33.653Z,17.12
2017-03-14T14:52:47.156Z,17.01
2017-03-14T14:54:01.973Z,17.07
2017-03-14T14:55:15.408Z,17.17
2017-03-14T14:56:28.946Z,17.05
2017-03-14T14:57:42.749Z,17.09
2017-03-14T14:59:02.501Z,17.22
2017-03-14T15:00:16.088Z,17.19
2017-03-14T15:01:32.901Z,17.28
2017-03-14T15:02:46.402Z,17.37
2017-03-14T15:04:00.034Z,17.42
2017-03-14T15:05:13.551Z,17.42
2017-03-14T15:06:27.539Z,17.38
2017-03-14T15:07:41.429Z,17.41
2017-03-14T15:08:55.335Z,17.37
2017-03-14T15:10:08.901Z,17.37
2017-03-14T15:11:22.590Z,17.41
2017-03-14T15:12:36.096Z,17.44
2017-03-14T15:13:49.683Z,17.41
2017-03-14T15:15:03.226Z,17.39
2017-03-14T15:16:16.793Z,17.41
2017-03-14T15:17:30.571Z,17.46
2017-03-14T15:18:44.098Z,17.41
2017-03-14T15:19:57.938Z,17.31
2017-03-14T15:21:11.794Z,17.38
2017-03-14T15:22:25.833Z,17.44
2017-03-14T15:23:39.536Z,17.46
2017-03-14T15:24:53.094Z,17.47
2017-03-14T15:26:07.349Z,17.46
2017-03-14T15:27:20.946Z,17.42
2017-03-14T15:29:08.305Z,17.41
2017-03-14T15:30:22.316Z,17.37
2017-03-14T15:31:36.398Z,17.2
2017-03-14T15:32:51.152Z,17.37
2017-03-14T15:34:04.895Z,17.47
2017-03-14T15:35:19.788Z,17.44
2017-03-14T15:36:33.596Z,17.31
2017-03-14T15:37:48.203Z,17.31
2017-03-14T15:39:02.026Z,17.23
2017-03-14T15:40:15.513Z,17.28
2017-03-14T15:41:29.495Z,17.39
2017-03-14T15:42:42.948Z,17.56
2017-03-14T15:43:56.521Z,17.86
2017-03-14T15:45:10.403Z,18.11
2017-03-14T15:46:24.703Z,18.46
2017-03-14T15:47:39.053Z,18.57
2017-03-14T15:48:52.989Z,18.57
2017-03-14T15:50:08.415Z,18.39
2017-03-14T15:51:22.211Z,18.41
2017-03-14T15:52:37.823Z,18.27
2017-03-14T15:53:55.135Z,18.24
2017-03-14T15:55:09.387Z,18.26
2017-03-14T15:56:24.028Z,18.05
2017-03-14T15:57:37.945Z,18.05
2017-03-14T15:58:52.265Z,18.09
2017-03-14T16:00:06.377Z,18.24
2017-03-14T16:01:19.985Z,18.21
2017-03-14T16:02:33.463Z,18.11
2017-03-14T16:03:47.484Z,18.06
2017-03-14T16:05:01.007Z,17.93
2017-03-14T16:06:14.408Z,17.95
2017-03-14T16:07:27.873Z,17.95
2017-03-14T16:08:41.352Z,17.88
2017-03-14T16:09:55.368Z,17.69
2017-03-14T16:11:09.535Z,17.57
2017-03-14T16:12:23.575Z,17.54
2017-03-14T16:13:37.159Z,17.54
2017-03-14T16:14:50.867Z,17.57
2017-03-14T16:16:04.802Z,17.41
2017-03-14T16:17:18.975Z,17.42